Time,TemperatureF,DewpointF,PressureIn,WindDirection,WindDirectionDegrees,WindSpeedMPH,WindSpeedGustMPH,Humidity,HourlyPrecipIn,Conditions,Clouds,dailyrainin,SoftwareType,DateUTC
2013-09-26 00:02:00,51.6,34.2,-100.00,North,-999,0.0,0.0,51,0.00,,,-99.99,FreeWX-Wi 1.01,2013-09-26 04:02:00,
2013-09-26 00:12:00,51.6,34.2,-100.00,North,-999,0.0,0.0,51,0.00,,,-99.99,FreeWX-Wi 1.01,2013-09-26 04:12:00,
2013-09-26 00:22:00,51.4,34.0,-100.00,North,-999,0.0,0.0,51,0.00,,,-99.99,FreeWX-Wi 1.01,2013-09-26 04:22:00,
2013-09-26 00:32:00,51.4,34.0,-100.00,North,-999,0.0,0.0,51,0.00,,,-99.99,FreeWX-Wi 1.01,2013-09-26 04:32:00,
2013-09-26 00:42:00,51.4,34.0,-100.00,North,-999,0.0,0.0,51,0.00,,,-99.99,FreeWX-Wi 1.01,2013-09-26 04:42:00,
2013-09-26 00:52:00,51.4,34.0,-100.00,North,-999,0.0,0.0,51,0.00,,,-99.99,FreeWX-Wi 1.01,2013-09-26 04:52:00,
2013-09-26 01:02:00,51.4,34.0,-100.00,North,-999,0.0,0.0,51,0.00,,,-99.99,FreeWX-Wi 1.01,2013-09-26 05:02:00,
2013-09-26 01:12:00,51.4,34.0,-100.00,North,-999,0.0,0.0,51,0.00,,,-99.99,FreeWX-Wi 1.01,2013-09-26 05:12:00,
2013-09-26 01:22:00,51.3,33.8,-100.00,North,-999,0.0,0.0,51,0.00,,,-99.99,FreeWX-Wi 1.01,2013-09-26 05:22:00,
2013-09-26 01:32:00,51.3,33.8,-100.00,North,-999,0.0,0.0,51,0.00,,,-99.99,FreeWX-Wi 1.01,2013-09-26 05:32:00,
2013-09-26 01:42:00,51.3,34.2,-100.00,North,-999,0.0,0.0,52,0.00,,,-99.99,FreeWX-Wi 1.01,2013-09-26 05:42:00,
2013-09-26 01:52:00,51.3,34.2,-100.00,North,-999,0.0,0.0,52,0.00,,,-99.99,FreeWX-Wi 1.01,2013-09-26 05:52:00,
2013-09-26 02:02:00,51.3,33.8,-100.00,North,-999,0.0,0.0,51,0.00,,,-99.99,FreeWX-Wi 1.01,2013-09-26 06:02:00,
2013-09-26 02:12:00,51.3,33.8,-100.00,North,-999,0.0,0.0,51,0.00,,,-99.99,FreeWX-Wi 1.01,2013-09-26 06:12:00,
2013-09-26 02:22:00,51.3,33.8,-100.00,North,-999,0.0,0.0,51,0.00,,,-99.99,FreeWX-Wi 1.01,2013-09-26 06:22:00,
2013-09-26 02:32:00,51.3,33.8,-100.00,North,-999,0.0,0.0,51,0.00,,,-99.99,FreeWX-Wi 1.01,2013-09-26 06:32:00,
2013-09-26 02:42:00,51.3,33.3,-100.00,North,-999,0.0,0.0,50,0.00,,,-99.99,FreeWX-Wi 1.01,2013-09-26 06:42:00,
2013-09-26 02:52:00,51.3,33.3,-100.00,North,-999,0.0,0.0,50,0.00,,,-99.99,FreeWX-Wi 1.01,2013-09-26 06:52:00,
2013-09-26 03:02:00,51.1,33.1,-100.00,North,-999,0.0,0.0,50,0.00,,,-99.99,FreeWX-Wi 1.01,2013-09-26 07:02:00,
2013-09-26 03:12:00,51.1,33.1,-100.00,North,-999,0.0,0.0,50,0.00,,,-99.99,FreeWX-Wi 1.01,2013-09-26 07:12:00,
2013-09-26 03:22:00,51.1,33.1,-100.00,North,-999,0.0,0.0,50,0.00,,,-99.99,FreeWX-Wi 1.01,2013-09-26 07:22:00,
2013-09-26 03:32:00,51.1,33.1,-100.00,North,-999,0.0,0.0,50,0.00,,,-99.99,FreeWX-Wi 1.01,2013-09-26 07:32:00,
2013-09-26 03:42:00,51.1,33.1,-100.00,North,-999,0.0,0.0,50,0.00,,,-99.99,FreeWX-Wi 1.01,2013-09-26 07:42:00,
2013-09-26 03:52:00,51.1,33.1,-100.00,North,-999,0.0,0.0,50,0.00,,,-99.99,FreeWX-Wi 1.01,2013-09-26 07:52:00,
2013-09-26 04:02:00,51.1,33.1,-100.00,North,-999,0.0,0.0,50,0.00,,,-99.99,FreeWX-Wi 1.01,2013-09-26 08:02:00,
2013-09-26 04:12:00,50.9,32.9,-100.00,North,-999,0.0,0.0,50,0.00,,,-99.99,FreeWX-Wi 1.01,2013-09-26 08:12:00,
2013-09-26 04:22:00,50.9,33.4,-100.00,North,-999,0.0,0.0,51,0.00,,,-99.99,FreeWX-Wi 1.01,2013-09-26 08:22:00,
2013-09-26 04:33:00,50.9,33.4,-100.00,North,-999,0.0,0.0,51,0.00,,,-99.99,FreeWX-Wi 1.01,2013-09-26 08:33:00,
2013-09-26 04:42:00,50.7,32.7,-100.00,North,-999,0.0,0.0,50,0.00,,,-99.99,FreeWX-Wi 1.01,2013-09-26 08:42:00,
2013-09-26 04:52:00,50.7,32.7,-100.00,North,-999,0.0,0.0,50,0.00,,,-99.99,FreeWX-Wi 1.01,2013-09-26 08:52:00,
2013-09-26 05:02:00,50.5,32.5,-100.00,North,-999,0.0,0.0,50,0.00,,,-99.99,FreeWX-Wi 1.01,2013-09-26 09:02:00,
2013-09-26 05:12:00,50.5,32.5,-100.00,North,-999,0.0,0.0,50,0.00,,,-99.99,FreeWX-Wi 1.01,2013-09-26 09:12:00,
2013-09-26 05:22:00,50.4,32.4,-100.00,North,-999,0.0,0.0,50,0.00,,,-99.99,FreeWX-Wi 1.01,2013-09-26 09:22:00,
2013-09-26 05:32:00,50.4,32.4,-100.00,North,-999,0.0,0.0,50,0.00,,,-99.99,FreeWX-Wi 1.01,2013-09-26 09:32:00,
2013-09-26 05:42:00,50.4,32.4,-100.00,North,-999,0.0,0.0,50,0.00,,,-99.99,FreeWX-Wi 1.01,2013-09-26 09:42:00,
2013-09-26 05:52:00,50.4,32.4,-100.00,North,-999,0.0,0.0,50,0.00,,,-99.99,FreeWX-Wi 1.01,2013-09-26 09:52:00,
2013-09-26 06:02:00,50.4,32.4,-100.00,North,-999,0.0,0.0,50,0.00,,,-99.99,FreeWX-Wi 1.01,2013-09-26 10:02:00,
2013-09-26 06:14:00,50.2,31.8,-100.00,North,-999,0.0,0.0,49,0.00,,,-99.99,FreeWX-Wi 1.01,2013-09-26 10:14:00,
2013-09-26 06:24:00,50.0,32.2,-100.00,North,-999,0.0,0.0,50,0.00,,,-99.99,FreeWX-Wi 1.01,2013-09-26 10:24:00,
2013-09-26 06:33:00,50.0,32.2,-100.00,North,-999,0.0,0.0,50,0.00,,,-99.99,FreeWX-Wi 1.01,2013-09-26 10:33:00,
2013-09-26 06:43:00,50.0,32.2,-100.00,North,-999,0.0,0.0,50,0.00,,,-99.99,FreeWX-Wi 1.01,2013-09-26 10:43:00,
2013-09-26 06:53:00,50.0,32.2,-100.00,North,-999,0.0,0.0,50,0.00,,,-99.99,FreeWX-Wi 1.01,2013-09-26 10:53:00,
2013-09-26 07:03:00,50.0,32.2,-100.00,North,-999,0.0,0.0,50,0.00,,,-99.99,FreeWX-Wi 1.01,2013-09-26 11:03:00,
2013-09-26 07:13:00,50.0,32.5,-100.00,North,-999,0.0,0.0,51,0.00,,,-99.99,FreeWX-Wi 1.01,2013-09-26 11:13:00,
2013-09-26 07:23:00,50.0,32.5,-100.00,North,-999,0.0,0.0,51,0.00,,,-99.99,FreeWX-Wi 1.01,2013-09-26 11:23:00,
2013-09-26 07:33:00,50.0,32.2,-100.00,North,-999,0.0,0.0,50,0.00,,,-99.99,FreeWX-Wi 1.01,2013-09-26 11:33:00,
2013-09-26 07:43:00,50.2,32.2,-100.00,North,-999,0.0,0.0,50,0.00,,,-99.99,FreeWX-Wi 1.01,2013-09-26 11:43:00,
2013-09-26 07:53:00,50.2,31.8,-100.00,North,-999,0.0,0.0,49,0.00,,,-99.99,FreeWX-Wi 1.01,2013-09-26 11:53:00,
2013-09-26 08:05:00,50.4,32.0,-100.00,North,-999,0.0,0.0,49,0.00,,,-99.99,FreeWX-Wi 1.01,2013-09-26 12:05:00,
2013-09-26 08:14:00,50.7,31.8,-100.00,North,-999,0.0,0.0,48,0.00,,,-99.99,FreeWX-Wi 1.01,2013-09-26 12:14:00,
2013-09-26 08:24:00,51.1,32.0,-100.00,North,-999,0.0,0.0,48,0.00,,,-99.99,FreeWX-Wi 1.01,2013-09-26 12:24:00,
2013-09-26 08:34:00,51.4,31.8,-100.00,North,-999,0.0,0.0,47,0.00,,,-99.99,FreeWX-Wi 1.01,2013-09-26 12:34:00,
2013-09-26 08:44:00,51.8,30.6,-100.00,North,-999,0.0,0.0,44,0.00,,,-99.99,FreeWX-Wi 1.01,2013-09-26 12:44:00,
2013-09-26 08:54:00,52.2,30.4,-100.00,North,-999,0.0,0.0,43,0.00,,,-99.99,FreeWX-Wi 1.01,2013-09-26 12:54:00,
2013-09-26 09:04:00,52.7,30.9,-100.00,North,-999,0.0,0.0,43,0.00,,,-99.99,FreeWX-Wi 1.01,2013-09-26 13:04:00,
2013-09-26 09:14:00,53.1,30.6,-100.00,North,-999,0.0,0.0,42,0.00,,,-99.99,FreeWX-Wi 1.01,2013-09-26 13:14:00,
2013-09-26 09:24:00,53.6,28.0,-100.00,North,-999,0.0,0.0,37,0.00,,,-99.99,FreeWX-Wi 1.01,2013-09-26 13:24:00,
2013-09-26 09:34:00,54.0,26.2,-100.00,North,-999,0.0,0.0,34,0.00,,,-99.99,FreeWX-Wi 1.01,2013-09-26 13:34:00,
2013-09-26 09:44:00,54.5,26.8,-100.00,North,-999,0.0,0.0,34,0.00,,,-99.99,FreeWX-Wi 1.01,2013-09-26 13:44:00,
2013-09-26 09:54:00,54.7,25.3,-100.00,North,-999,0.0,0.0,32,0.00,,,-99.99,FreeWX-Wi 1.01,2013-09-26 13:54:00,
2013-09-26 10:04:00,54.9,25.5,-100.00,North,-999,0.0,0.0,32,0.00,,,-99.99,FreeWX-Wi 1.01,2013-09-26 14:04:00,
2013-09-26 10:15:00,55.2,25.9,-100.00,North,-999,0.0,0.0,32,0.00,,,-99.99,FreeWX-Wi 1.01,2013-09-26 14:15:00,
2013-09-26 10:24:00,55.8,26.4,-100.00,North,-999,0.0,0.0,32,0.00,,,-99.99,FreeWX-Wi 1.01,2013-09-26 14:24:00,
2013-09-26 10:35:00,55.9,24.1,-100.00,North,-999,0.0,0.0,29,0.00,,,-99.99,FreeWX-Wi 1.01,2013-09-26 14:35:00,
2013-09-26 10:44:00,55.9,24.1,-100.00,North,-999,0.0,0.0,29,0.00,,,-99.99,FreeWX-Wi 1.01,2013-09-26 14:44:00,
2013-09-26 10:54:00,55.6,23.9,-100.00,North,-999,0.0,0.0,29,0.00,,,-99.99,FreeWX-Wi 1.01,2013-09-26 14:54:00,
2013-09-26 11:14:00,55.9,24.1,-100.00,North,-999,0.0,0.0,29,0.00,,,-99.99,FreeWX-Wi 1.01,2013-09-26 15:14:00,
2013-09-26 11:24:00,56.1,24.3,-100.00,North,-999,0.0,0.0,29,0.00,,,-99.99,FreeWX-Wi 1.01,2013-09-26 15:24:00,
2013-09-26 11:34:00,56.5,24.6,-100.00,North,-999,0.0,0.0,29,0.00,,,-99.99,FreeWX-Wi 1.01,2013-09-26 15:34:00,
2013-09-26 11:44:00,56.5,24.6,-100.00,North,-999,0.0,0.0,29,0.00,,,-99.99,FreeWX-Wi 1.01,2013-09-26 15:44:00,
2013-09-26 11:54:00,57.2,25.2,-100.00,North,-999,0.0,0.0,29,0.00,,,-99.99,FreeWX-Wi 1.01,2013-09-26 15:54:00,
2013-09-26 12:04:00,57.9,25.9,-100.00,North,-999,0.0,0.0,29,0.00,,,-99.99,FreeWX-Wi 1.01,2013-09-26 16:04:00,
2013-09-26 12:14:00,58.1,26.1,-100.00,North,-999,0.0,0.0,29,0.00,,,-99.99,FreeWX-Wi 1.01,2013-09-26 16:14:00,
2013-09-26 12:24:00,58.3,26.2,-100.00,North,-999,0.0,0.0,29,0.00,,,-99.99,FreeWX-Wi 1.01,2013-09-26 16:24:00,
2013-09-26 12:35:00,58.3,26.2,-100.00,North,-999,0.0,0.0,29,0.00,,,-99.99,FreeWX-Wi 1.01,2013-09-26 16:35:00,
2013-09-26 12:44:00,58.5,26.2,-100.00,North,-999,0.0,0.0,29,0.00,,,-99.99,FreeWX-Wi 1.01,2013-09-26 16:44:00,
2013-09-26 12:54:00,58.5,26.2,-100.00,North,-999,0.0,0.0,29,0.00,,,-99.99,FreeWX-Wi 1.01,2013-09-26 16:54:00,
2013-09-26 13:04:00,58.3,26.2,-100.00,North,-999,0.0,0.0,29,0.00,,,-99.99,FreeWX-Wi 1.01,2013-09-26 17:04:00,
2013-09-26 13:14:00,58.1,26.1,-100.00,North,-999,0.0,0.0,29,0.00,,,-99.99,FreeWX-Wi 1.01,2013-09-26 17:14:00,
2013-09-26 13:24:00,58.6,26.4,-100.00,North,-999,0.0,0.0,29,0.00,,,-99.99,FreeWX-Wi 1.01,2013-09-26 17:24:00,
2013-09-26 13:34:00,59.0,25.9,-100.00,North,-999,0.0,0.0,28,0.00,,,-99.99,FreeWX-Wi 1.01,2013-09-26 17:34:00,
2013-09-26 13:44:00,58.6,26.4,-100.00,North,-999,0.0,0.0,29,0.00,,,-99.99,FreeWX-Wi 1.01,2013-09-26 17:44:00,
2013-09-26 13:54:00,59.2,26.1,-100.00,North,-999,0.0,0.0,28,0.00,,,-99.99,FreeWX-Wi 1.01,2013-09-26 17:54:00,
2013-09-26 14:04:00,59.7,26.6,-100.00,North,-999,0.0,0.0,28,0.00,,,-99.99,FreeWX-Wi 1.01,2013-09-26 18:04:00,
2013-09-26 14:14:00,59.9,25.0,-100.00,North,-999,0.0,0.0,26,0.00,,,-99.99,FreeWX-Wi 1.01,2013-09-26 18:14:00,
2013-09-26 14:24:00,59.7,26.6,-100.00,North,-999,0.0,0.0,28,0.00,,,-99.99,FreeWX-Wi 1.01,2013-09-26 18:24:00,
2013-09-26 14:34:00,60.1,27.0,-100.00,North,-999,0.0,0.0,28,0.00,,,-99.99,FreeWX-Wi 1.01,2013-09-26 18:34:00,
2013-09-26 14:44:00,60.8,24.8,-100.00,North,-999,0.0,0.0,25,0.00,,,-99.99,FreeWX-Wi 1.01,2013-09-26 18:44:00,
2013-09-26 14:54:00,60.6,25.5,-100.00,North,-999,0.0,0.0,26,0.00,,,-99.99,FreeWX-Wi 1.01,2013-09-26 18:54:00,
2013-09-26 15:04:00,60.6,25.5,-100.00,North,-999,0.0,0.0,26,0.00,,,-99.99,FreeWX-Wi 1.01,2013-09-26 19:04:00,
2013-09-26 15:14:00,60.6,25.5,-100.00,North,-999,0.0,0.0,26,0.00,,,-99.99,FreeWX-Wi 1.01,2013-09-26 19:14:00,
2013-09-26 15:24:00,60.8,24.8,-100.00,North,-999,0.0,0.0,25,0.00,,,-99.99,FreeWX-Wi 1.01,2013-09-26 19:24:00,
2013-09-26 15:44:00,60.8,24.8,-100.00,North,-999,0.0,0.0,25,0.00,,,-99.99,FreeWX-Wi 1.01,2013-09-26 19:44:00,
2013-09-26 15:55:00,60.8,24.8,-100.00,North,-999,0.0,0.0,25,0.00,,,-99.99,FreeWX-Wi 1.01,2013-09-26 19:55:00,
2013-09-26 16:04:00,60.6,27.3,-100.00,North,-999,0.0,0.0,28,0.00,,,-99.99,FreeWX-Wi 1.01,2013-09-26 20:04:00,
2013-09-26 16:14:00,60.3,27.0,-100.00,North,-999,0.0,0.0,28,0.00,,,-99.99,FreeWX-Wi 1.01,2013-09-26 20:14:00,
2013-09-26 16:24:00,60.1,27.0,-100.00,North,-999,0.0,0.0,28,0.00,,,-99.99,FreeWX-Wi 1.01,2013-09-26 20:24:00,
2013-09-26 16:34:00,60.1,27.0,-100.00,North,-999,0.0,0.0,28,0.00,,,-99.99,FreeWX-Wi 1.01,2013-09-26 20:34:00,
2013-09-26 16:44:00,59.9,26.8,-100.00,North,-999,0.0,0.0,28,0.00,,,-99.99,FreeWX-Wi 1.01,2013-09-26 20:44:00,
2013-09-26 16:54:00,59.7,26.6,-100.00,North,-999,0.0,0.0,28,0.00,,,-99.99,FreeWX-Wi 1.01,2013-09-26 20:54:00,
2013-09-26 17:04:00,59.5,26.4,-100.00,North,-999,0.0,0.0,28,0.00,,,-99.99,FreeWX-Wi 1.01,2013-09-26 21:04:00,
2013-09-26 17:14:00,59.2,26.1,-100.00,North,-999,0.0,0.0,28,0.00,,,-99.99,FreeWX-Wi 1.01,2013-09-26 21:14:00,
2013-09-26 17:24:00,58.8,26.6,-100.00,North,-999,0.0,0.0,29,0.00,,,-99.99,FreeWX-Wi 1.01,2013-09-26 21:24:00,
2013-09-26 17:34:00,58.5,26.2,-100.00,North,-999,0.0,0.0,29,0.00,,,-99.99,FreeWX-Wi 1.01,2013-09-26 21:34:00,
2013-09-26 17:44:00,58.3,26.2,-100.00,North,-999,0.0,0.0,29,0.00,,,-99.99,FreeWX-Wi 1.01,2013-09-26 21:44:00,
2013-09-26 17:54:00,58.1,27.7,-100.00,North,-999,0.0,0.0,31,0.00,,,-99.99,FreeWX-Wi 1.01,2013-09-26 21:54:00,
2013-09-26 18:04:00,57.7,27.3,-100.00,North,-999,0.0,0.0,31,0.00,,,-99.99,FreeWX-Wi 1.01,2013-09-26 22:04:00,
2013-09-26 18:14:00,57.2,26.8,-100.00,North,-999,0.0,0.0,31,0.00,,,-99.99,FreeWX-Wi 1.01,2013-09-26 22:14:00,
2013-09-26 18:24:00,56.7,28.6,-100.00,North,-999,0.0,0.0,34,0.00,,,-99.99,FreeWX-Wi 1.01,2013-09-26 22:24:00,
2013-09-26 18:34:00,56.1,30.2,-100.00,North,-999,0.0,0.0,37,0.00,,,-99.99,FreeWX-Wi 1.01,2013-09-26 22:34:00,
2013-09-26 18:44:00,55.8,31.1,-100.00,North,-999,0.0,0.0,39,0.00,,,-99.99,FreeWX-Wi 1.01,2013-09-26 22:44:00,
2013-09-26 18:54:00,55.6,31.1,-100.00,North,-999,0.0,0.0,39,0.00,,,-99.99,FreeWX-Wi 1.01,2013-09-26 22:54:00,
2013-09-26 19:04:00,55.4,30.9,-100.00,North,-999,0.0,0.0,39,0.00,,,-99.99,FreeWX-Wi 1.01,2013-09-26 23:04:00,
2013-09-26 19:14:00,55.2,30.7,-100.00,North,-999,0.0,0.0,39,0.00,,,-99.99,FreeWX-Wi 1.01,2013-09-26 23:14:00,
2013-09-26 19:24:00,54.9,30.4,-100.00,North,-999,0.0,0.0,39,0.00,,,-99.99,FreeWX-Wi 1.01,2013-09-26 23:24:00,
2013-09-26 19:34:00,54.7,30.2,-100.00,North,-999,0.0,0.0,39,0.00,,,-99.99,FreeWX-Wi 1.01,2013-09-26 23:34:00,
2013-09-26 19:44:00,54.5,30.0,-100.00,North,-999,0.0,0.0,39,0.00,,,-99.99,FreeWX-Wi 1.01,2013-09-26 23:44:00,
2013-09-26 19:54:00,54.1,30.4,-100.00,North,-999,0.0,0.0,40,0.00,,,-99.99,FreeWX-Wi 1.01,2013-09-26 23:54:00,
2013-09-26 20:04:00,53.8,30.0,-100.00,North,-999,0.0,0.0,40,0.00,,,-99.99,FreeWX-Wi 1.01,2013-09-27 00:04:00,
2013-09-26 20:14:00,53.6,29.8,-100.00,North,-999,0.0,0.0,40,0.00,,,-99.99,FreeWX-Wi 1.01,2013-09-27 00:14:00,
2013-09-26 20:24:00,53.2,30.2,-100.00,North,-999,0.0,0.0,41,0.00,,,-99.99,FreeWX-Wi 1.01,2013-09-27 00:24:00,
2013-09-26 20:34:00,52.9,29.8,-100.00,North,-999,0.0,0.0,41,0.00,,,-99.99,FreeWX-Wi 1.01,2013-09-27 00:34:00,
2013-09-26 20:44:00,52.7,30.2,-100.00,North,-999,0.0,0.0,42,0.00,,,-99.99,FreeWX-Wi 1.01,2013-09-27 00:44:00,
2013-09-26 20:54:00,52.7,30.2,-100.00,North,-999,0.0,0.0,42,0.00,,,-99.99,FreeWX-Wi 1.01,2013-09-27 00:54:00,
2013-09-26 21:04:00,52.9,30.4,-100.00,North,-999,0.0,0.0,42,0.00,,,-99.99,FreeWX-Wi 1.01,2013-09-27 01:04:00,
2013-09-26 21:14:00,53.1,30.6,-100.00,North,-999,0.0,0.0,42,0.00,,,-99.99,FreeWX-Wi 1.01,2013-09-27 01:14:00,
2013-09-26 21:24:00,53.1,30.6,-100.00,North,-999,0.0,0.0,42,0.00,,,-99.99,FreeWX-Wi 1.01,2013-09-27 01:24:00,
2013-09-26 21:34:00,52.9,30.4,-100.00,North,-999,0.0,0.0,42,0.00,,,-99.99,FreeWX-Wi 1.01,2013-09-27 01:34:00,
2013-09-26 21:45:00,53.1,30.6,-100.00,North,-999,0.0,0.0,42,0.00,,,-99.99,FreeWX-Wi 1.01,2013-09-27 01:45:00,
2013-09-26 21:54:00,52.7,30.9,-100.00,North,-999,0.0,0.0,43,0.00,,,-99.99,FreeWX-Wi 1.01,2013-09-27 01:54:00,
2013-09-26 22:04:00,52.2,30.4,-100.00,North,-999,0.0,0.0,43,0.00,,,-99.99,FreeWX-Wi 1.01,2013-09-27 02:04:00,
2013-09-26 22:14:00,51.6,30.4,-100.00,North,-999,0.0,0.0,44,0.00,,,-99.99,FreeWX-Wi 1.01,2013-09-27 02:14:00,
2013-09-26 22:24:00,51.4,30.7,-100.00,North,-999,0.0,0.0,45,0.00,,,-99.99,FreeWX-Wi 1.01,2013-09-27 02:24:00,
2013-09-26 22:34:00,51.3,31.3,-100.00,North,-999,0.0,0.0,46,0.00,,,-99.99,FreeWX-Wi 1.01,2013-09-27 02:34:00,
2013-09-26 22:44:00,51.3,32.2,-100.00,North,-999,0.0,0.0,48,0.00,,,-99.99,FreeWX-Wi 1.01,2013-09-27 02:44:00,
2013-09-26 22:55:00,50.9,32.0,-100.00,North,-999,0.0,0.0,48,0.00,,,-99.99,FreeWX-Wi 1.01,2013-09-27 02:55:00,
2013-09-26 23:04:00,50.7,32.7,-100.00,North,-999,0.0,0.0,50,0.00,,,-99.99,FreeWX-Wi 1.01,2013-09-27 03:04:00,
2013-09-26 23:14:00,50.5,32.5,-100.00,North,-999,0.0,0.0,50,0.00,,,-99.99,FreeWX-Wi 1.01,2013-09-27 03:14:00,
2013-09-26 23:24:00,50.5,33.1,-100.00,North,-999,0.0,0.0,51,0.00,,,-99.99,FreeWX-Wi 1.01,2013-09-27 03:24:00,
2013-09-26 23:34:00,50.5,33.1,-100.00,North,-999,0.0,0.0,51,0.00,,,-99.99,FreeWX-Wi 1.01,2013-09-27 03:34:00,
2013-09-26 23:44:00,50.7,33.3,-100.00,North,-999,0.0,0.0,51,0.00,,,-99.99,FreeWX-Wi 1.01,2013-09-27 03:44:00,
2013-09-26 23:54:00,50.7,33.3,-100.00,North,-999,0.0,0.0,51,0.00,,,-99.99,FreeWX-Wi 1.01,2013-09-27 03:54:00,